메인 페이지
METAR-TAF:

METAR-TAF

공항 :

세인트존스, 뉴펀들랜드 래브라도, 캐나다

위도: 47-37N, 경도: 052-44W, 고도: 134m

현재 날씨관측

예보는 58분 전, 04:00시(UTC)에 발표되었습니다.
남서8kt
온도 4°C
습도 87%
기압 1020 hPa
시정: 24.1km
고도 24000ft 상공 구름 보통

METAR: CYYT 160400Z 23008KT 15SM SCT240 04/02 A3012 RMK CI3 SLP205

시각: 02:28 (04:58 UTC)

예보

예보는 5 시간 20분 전, 23:38시(UTC)에 발표되었습니다.
예보 대상 시간: 16일 00시부터 16일 24시까지 (UTC)
서남서10kt
시정: 10km
고도 5000ft 상공 구름 조금
고도 20000ft 상공 구름 보통
전환 중
16일 06시부터 16일 08시까지 (UTC)
15kt, 순간 최대 풍속 25kt
16일 0800시부터 (UTC)
15kt, 순간 최대 풍속 25kt
시정: 10km
고도 5000ft 상공 구름 보통
고도 10000ft 상공 구름 많음
16일 1100시부터 (UTC)
25kt, 순간 최대 풍속 40kt
시정: 10km
고도 5000ft 상공 구름 많음
고도 10000ft 상공 흐림
16일 1500시부터 (UTC)
35kt, 순간 최대 풍속 50kt
시정: 8.0km
고도 800ft 상공 구름 보통
고도 1500ft 상공 구름 많음
고도 5000ft 상공 흐림
약한비, 박무
16일 2000시부터 (UTC)
서남서30kt, 순간 최대 풍속 45kt
시정: 10km
고도 3000ft 상공 구름 보통

TAF: CYYT 152338Z 1600/1624 25010KT P6SM FEW050 SCT200 BECMG 1606/1608 18015G25KT FM160800 18015G25KT P6SM SCT050 BKN100 FM161100 18025G40KT P6SM BKN050 OVC100 FM161500 18035G50KT 5SM -RA BR SCT008 BKN015 OVC050 FM162000 25030G45KT P6SM SCT030 RMK NXT FCST BY 160600Z

4,000개 이상의 공항 관측 자료 및 예보 (METAR 및 TAF 보고).

지도상에서 검색 가능한 기상관측소가 노란 점과 빨간 점으로 표시되어 있습니다.

기상관측소 명을 보려면 표시 위로 마우스를 이동하세요.

날씨 관측과 예보를 보려면 클릭하세요.

지도 변경 : 확대하려면 엑스 표시가 있는 녹색 버튼, 축소하려면 빼기 표시가 있는 녹색 버튼, 다음 페이지의 지도를 보려면 녹색 화살표를 클릭하세요.


METAR-TAF: